createdAt,value
2023-02-25T00:00:05.867Z,9.418199
2023-02-25T00:01:05.864Z,9.418353
2023-02-25T00:02:05.964Z,9.418290
2023-02-25T00:03:06.004Z,9.418275
2023-02-25T00:04:05.882Z,9.418221
2023-02-25T00:05:05.834Z,9.418155
2023-02-25T00:06:05.826Z,9.418220
2023-02-25T00:07:05.824Z,9.418174
2023-02-25T00:08:05.807Z,9.418308
2023-02-25T00:09:05.790Z,9.418365
2023-02-25T00:10:05.790Z,9.418295
2023-02-25T00:11:05.811Z,9.418336
2023-02-25T00:12:05.770Z,9.418273
2023-02-25T00:13:17.351Z,9.418218
2023-02-25T00:14:07.768Z,9.418364
2023-02-25T00:15:05.771Z,9.418266
2023-02-25T00:16:05.758Z,9.418239
2023-02-25T00:17:05.816Z,9.418308
2023-02-25T00:18:05.748Z,9.418239
2023-02-25T00:19:06.805Z,9.418072
2023-02-25T00:20:05.725Z,9.418339
2023-02-25T00:21:05.712Z,9.418314
2023-02-25T00:22:05.717Z,9.418281
2023-02-25T00:23:05.702Z,9.418362
2023-02-25T00:24:15.997Z,9.418309
2023-02-25T00:25:07.698Z,9.418260
2023-02-25T00:26:05.709Z,9.418319
2023-02-25T00:27:05.682Z,9.418229
2023-02-25T00:28:05.670Z,9.418260
2023-02-25T00:29:05.682Z,9.418326
2023-02-25T00:30:05.702Z,9.418361
2023-02-25T00:31:05.752Z,9.418322
2023-02-25T00:32:05.820Z,9.418315
2023-02-25T00:33:05.647Z,9.418307
2023-02-25T00:34:05.645Z,9.418300
2023-02-25T00:35:05.630Z,9.418281
2023-02-25T00:36:05.623Z,9.418249
2023-02-25T00:37:05.649Z,9.418370
2023-02-25T00:38:15.340Z,9.418241
2023-02-25T00:39:07.644Z,9.418356
2023-02-25T00:40:05.589Z,9.418314
2023-02-25T00:41:05.595Z,9.418463
2023-02-25T00:42:05.605Z,9.418511
2023-02-25T00:43:05.576Z,9.418311
2023-02-25T00:44:05.585Z,9.418065
2023-02-25T00:45:05.572Z,9.418112
2023-02-25T00:46:05.673Z,9.418107
2023-02-25T00:47:05.569Z,9.418202
2023-02-25T00:48:05.550Z,9.418132
2023-02-25T00:49:05.553Z,9.418312
2023-02-25T00:50:05.535Z,9.418310
2023-02-25T00:51:05.533Z,9.418282
2023-02-25T00:52:05.528Z,9.418190
2023-02-25T00:53:05.511Z,9.418033
2023-02-25T00:54:05.506Z,9.418057
2023-02-25T00:55:05.501Z,9.417890
2023-02-25T00:56:05.481Z,9.418359
2023-02-25T00:57:06.500Z,9.418279
2023-02-25T00:58:05.494Z,9.418004
2023-02-25T00:59:05.492Z,9.418488
2023-02-25T01:00:05.471Z,9.418939
2023-02-25T01:01:05.460Z,9.418734
2023-02-25T01:02:05.443Z,9.418365
2023-02-25T01:03:05.516Z,9.418255
2023-02-25T01:04:05.443Z,9.418225
2023-02-25T01:05:05.419Z,9.418213
2023-02-25T01:06:05.428Z,9.418226
2023-02-25T01:07:05.429Z,9.418191
2023-02-25T01:08:05.417Z,9.418104
2023-02-25T01:09:05.439Z,9.418134
2023-02-25T01:10:05.403Z,9.418214
2023-02-25T01:11:05.402Z,9.418124
2023-02-25T01:12:05.378Z,9.418162
2023-02-25T01:13:05.380Z,9.418236
2023-02-25T01:14:05.459Z,9.418278
2023-02-25T01:15:05.395Z,9.418094
2023-02-25T01:16:05.563Z,9.418198
2023-02-25T01:17:05.347Z,9.418447
2023-02-25T01:18:05.399Z,9.418190
2023-02-25T01:19:05.332Z,9.418217
2023-02-25T01:20:06.355Z,9.418242
2023-02-25T01:21:05.324Z,9.418236
2023-02-25T01:22:05.312Z,9.418225
2023-02-25T01:23:05.317Z,9.418156
2023-02-25T01:24:05.306Z,9.418163
2023-02-25T01:25:05.292Z,9.418326
2023-02-25T01:26:05.300Z,9.418313
2023-02-25T01:27:05.286Z,9.418258
2023-02-25T01:28:05.276Z,9.418311
2023-02-25T01:29:05.260Z,9.418140
2023-02-25T01:30:05.257Z,9.418336
2023-02-25T01:31:05.366Z,9.418227
2023-02-25T01:32:05.369Z,9.418275
2023-02-25T01:33:05.255Z,9.418315
2023-02-25T01:34:05.230Z,9.418257
2023-02-25T01:35:05.233Z,9.418271
2023-02-25T01:36:05.224Z,9.418247
2023-02-25T01:37:05.229Z,9.418259
2023-02-25T01:38:05.243Z,9.418326
2023-02-25T01:39:05.200Z,9.418256
2023-02-25T01:40:05.191Z,9.418140
2023-02-25T01:41:05.197Z,9.418153
2023-02-25T01:42:05.184Z,9.418168
2023-02-25T01:43:05.174Z,9.418142
2023-02-25T01:44:05.235Z,9.418219
2023-02-25T01:45:05.155Z,9.418247
2023-02-25T01:46:05.151Z,9.418224
2023-02-25T01:47:05.143Z,9.418248
2023-02-25T01:48:05.158Z,9.418298
2023-02-25T01:49:05.142Z,9.418298
2023-02-25T01:50:05.141Z,9.418262
2023-02-25T01:51:05.123Z,9.418360
2023-02-25T01:52:05.283Z,9.418315
2023-02-25T01:53:05.104Z,9.418154
2023-02-25T01:54:05.118Z,9.418226
2023-02-25T01:55:05.101Z,9.418164
2023-02-25T01:56:05.108Z,9.418222
2023-02-25T01:57:05.096Z,9.418193
2023-02-25T01:58:05.078Z,9.418226
2023-02-25T01:59:05.089Z,9.418258
2023-02-25T02:00:05.069Z,9.418251
2023-02-25T02:01:05.135Z,9.418292
2023-02-25T02:02:05.120Z,9.418262
2023-02-25T02:03:05.052Z,9.418253
2023-02-25T02:04:05.043Z,9.418280
2023-02-25T02:05:05.042Z,9.418261
2023-02-25T02:06:06.037Z,9.418289
2023-02-25T02:07:05.016Z,9.418339
2023-02-25T02:08:05.025Z,9.418321
2023-02-25T02:09:05.009Z,9.418180
2023-02-25T02:10:05.020Z,9.418174
2023-02-25T02:11:04.975Z,9.418126
2023-02-25T02:12:05.024Z,9.418096
2023-02-25T02:13:04.974Z,9.418294
2023-02-25T02:14:04.965Z,9.418332
2023-02-25T02:15:04.958Z,9.418344
2023-02-25T02:16:04.989Z,9.418321
2023-02-25T02:17:04.949Z,9.418358
2023-02-25T02:18:04.938Z,9.418318
2023-02-25T02:19:04.933Z,9.418361
2023-02-25T02:20:04.978Z,9.418318
2023-02-25T02:21:04.930Z,9.418315
2023-02-25T02:22:04.899Z,9.418333
2023-02-25T02:23:04.903Z,9.418349
2023-02-25T02:24:04.894Z,9.418334
2023-02-25T02:25:04.917Z,9.418385
2023-02-25T02:26:04.871Z,9.418357
2023-02-25T02:27:04.877Z,9.418364
2023-02-25T02:28:04.880Z,9.418329
2023-02-25T02:29:04.862Z,9.418348
2023-02-25T02:30:04.881Z,9.418316
2023-02-25T02:31:04.871Z,9.418315
2023-02-25T02:32:04.964Z,9.418316
2023-02-25T02:33:04.842Z,9.418315
2023-02-25T02:34:04.834Z,9.418295
2023-02-25T02:35:04.821Z,9.418329
2023-02-25T02:36:04.834Z,9.418293
2023-02-25T02:37:04.805Z,9.418264
2023-02-25T02:38:04.830Z,9.418236
2023-02-25T02:39:04.797Z,9.418268
2023-02-25T02:40:04.798Z,9.418263
2023-02-25T02:41:04.777Z,9.418273
2023-02-25T02:42:04.780Z,9.418379
2023-02-25T02:43:04.786Z,9.418426
2023-02-25T02:44:04.761Z,9.418450
2023-02-25T02:45:04.824Z,9.418336
2023-02-25T02:46:04.807Z,9.418330
2023-02-25T02:47:04.757Z,9.418276
2023-02-25T02:48:04.741Z,9.418305
2023-02-25T02:49:04.727Z,9.418299
2023-02-25T02:50:04.713Z,9.418333
2023-02-25T02:51:04.722Z,9.418325
2023-02-25T02:52:04.723Z,9.418203
2023-02-25T02:53:04.721Z,9.418222
2023-02-25T02:54:04.689Z,9.418200
2023-02-25T02:55:04.686Z,9.418297
2023-02-25T02:56:04.669Z,9.418220
2023-02-25T02:57:04.672Z,9.418289
2023-02-25T02:58:04.679Z,9.418252
2023-02-25T02:59:04.653Z,9.418133
2023-02-25T03:00:04.642Z,9.418168
2023-02-25T03:01:04.673Z,9.418180
2023-02-25T03:02:04.615Z,9.418189
2023-02-25T03:03:05.650Z,9.417995
2023-02-25T03:04:04.686Z,9.418153
2023-02-25T03:05:04.594Z,9.418142
2023-02-25T03:06:04.594Z,9.418189
2023-02-25T03:07:04.594Z,9.418268
2023-02-25T03:08:04.590Z,9.418295
2023-02-25T03:09:04.595Z,9.418133
2023-02-25T03:10:04.573Z,9.418276
2023-02-25T03:11:04.581Z,9.418353
2023-02-25T03:12:04.563Z,9.418295
2023-02-25T03:13:04.569Z,9.418307
2023-02-25T03:14:04.544Z,9.418352
2023-02-25T03:15:04.598Z,9.418420
2023-02-25T03:16:04.533Z,9.418223
2023-02-25T03:17:04.630Z,9.418182
2023-02-25T03:18:04.523Z,9.418262
2023-02-25T03:19:04.513Z,9.418172
2023-02-25T03:20:04.518Z,9.418138
2023-02-25T03:21:04.551Z,9.418020
2023-02-25T03:22:04.501Z,9.418182
2023-02-25T03:23:04.491Z,9.418200
2023-02-25T03:24:04.478Z,9.418104
2023-02-25T03:25:04.565Z,9.418066
2023-02-25T03:26:04.471Z,9.418175
2023-02-25T03:27:04.462Z,9.418286
2023-02-25T03:28:04.463Z,9.418269
2023-02-25T03:29:04.523Z,9.418210
2023-02-25T03:30:04.457Z,9.418289
2023-02-25T03:31:04.504Z,9.418240
2023-02-25T03:32:04.572Z,9.418218
2023-02-25T03:33:04.432Z,9.418068
2023-02-25T03:34:04.422Z,9.418343
2023-02-25T03:35:04.449Z,9.418040
2023-02-25T03:36:04.440Z,9.417855
2023-02-25T03:37:04.420Z,9.418178
2023-02-25T03:38:04.427Z,9.418513
2023-02-25T03:39:04.391Z,9.418609
2023-02-25T03:40:04.404Z,9.418244
2023-02-25T03:41:04.389Z,9.418076
2023-02-25T03:42:04.404Z,9.418203
2023-02-25T03:43:05.349Z,9.418310
2023-02-25T03:44:04.395Z,9.418359
2023-02-25T03:45:04.391Z,9.418311
2023-02-25T03:46:04.384Z,9.418384
2023-02-25T03:47:04.339Z,9.418435
2023-02-25T03:48:04.329Z,9.418591
2023-02-25T03:49:04.337Z,9.418607
2023-02-25T03:50:04.312Z,9.418402
2023-02-25T03:51:04.314Z,9.418269
2023-02-25T03:52:04.340Z,9.418381
2023-02-25T03:53:04.296Z,9.418321
2023-02-25T03:54:04.312Z,9.418204
2023-02-25T03:55:04.295Z,9.418311
2023-02-25T03:56:04.300Z,9.418287
2023-02-25T03:57:04.293Z,9.418232
2023-02-25T03:58:04.270Z,9.418324
2023-02-25T03:59:04.254Z,9.418298
2023-02-25T04:00:04.242Z,9.418205
2023-02-25T04:01:04.252Z,9.418183
2023-02-25T04:02:04.264Z,9.418204
2023-02-25T04:03:04.223Z,9.417885
2023-02-25T04:04:04.220Z,9.418074
2023-02-25T04:05:04.211Z,9.418289
2023-02-25T04:06:04.229Z,9.418273
2023-02-25T04:07:04.197Z,9.418430
2023-02-25T04:08:04.190Z,9.418509
2023-02-25T04:09:04.187Z,9.418552
2023-02-25T04:10:04.195Z,9.418366
2023-02-25T04:11:04.195Z,9.418451
2023-02-25T04:12:04.185Z,9.418335
2023-02-25T04:13:04.162Z,9.418389
2023-02-25T04:14:04.157Z,9.418479
2023-02-25T04:15:04.139Z,9.418470
2023-02-25T04:16:04.193Z,9.418375
2023-02-25T04:17:04.120Z,9.418322
2023-02-25T04:18:04.123Z,9.418204
2023-02-25T04:19:04.109Z,9.418295
2023-02-25T04:20:04.117Z,9.418325
2023-02-25T04:21:04.124Z,9.418295
2023-02-25T04:22:04.100Z,9.418353
2023-02-25T04:23:04.097Z,9.418358
2023-02-25T04:24:04.131Z,9.418493
2023-02-25T04:25:05.074Z,9.418341
2023-02-25T04:26:04.068Z,9.418324
2023-02-25T04:27:04.088Z,9.418341
2023-02-25T04:28:04.051Z,9.418287
2023-02-25T04:29:04.041Z,9.418289
2023-02-25T04:30:04.054Z,9.418275
2023-02-25T04:31:04.197Z,9.418265
2023-02-25T04:32:04.169Z,9.418173
2023-02-25T04:33:04.018Z,9.418237
2023-02-25T04:34:04.015Z,9.418134
2023-02-25T04:35:04.002Z,9.418176
2023-02-25T04:36:03.998Z,9.418135
2023-02-25T04:37:03.990Z,9.418245
2023-02-25T04:38:04.050Z,9.418248
2023-02-25T04:39:03.976Z,9.418263
2023-02-25T04:40:03.972Z,9.418267
2023-02-25T04:41:03.973Z,9.418280
2023-02-25T04:42:03.976Z,9.418275
2023-02-25T04:43:03.967Z,9.418271
2023-02-25T04:44:03.960Z,9.418187
2023-02-25T04:45:03.933Z,9.418201
2023-02-25T04:46:03.968Z,9.418235
2023-02-25T04:47:03.926Z,9.418262
2023-02-25T04:48:03.924Z,9.418278
2023-02-25T04:49:03.928Z,9.418258
2023-02-25T04:50:03.905Z,9.418281
2023-02-25T04:51:03.903Z,9.418263
2023-02-25T04:52:03.921Z,9.418259
2023-02-25T04:53:03.896Z,9.418338
2023-02-25T04:54:03.887Z,9.418254
2023-02-25T04:55:03.896Z,9.418180
2023-02-25T04:56:03.870Z,9.418264
2023-02-25T04:57:03.870Z,9.418254
2023-02-25T04:58:03.862Z,9.418246
2023-02-25T04:59:03.867Z,9.418220
2023-02-25T05:00:03.865Z,9.418189
2023-02-25T05:01:03.842Z,9.418216
2023-02-25T05:02:03.921Z,9.418291
2023-02-25T05:03:03.818Z,9.418287
2023-02-25T05:04:03.822Z,9.418251
2023-02-25T05:05:03.915Z,9.418378
2023-02-25T05:06:03.830Z,9.418398
2023-02-25T05:07:03.799Z,9.418332
2023-02-25T05:08:03.800Z,9.418341
2023-02-25T05:09:03.794Z,9.418249
2023-02-25T05:10:03.792Z,9.418294
2023-02-25T05:11:03.770Z,9.418359
2023-02-25T05:12:03.783Z,9.418333
2023-02-25T05:13:03.757Z,9.418238
2023-02-25T05:14:03.760Z,9.418290
2023-02-25T05:15:03.797Z,9.418230
2023-02-25T05:16:03.778Z,9.418349
2023-02-25T05:17:03.759Z,9.418247
2023-02-25T05:18:03.727Z,9.418232
2023-02-25T05:19:03.726Z,9.418359
2023-02-25T05:20:03.788Z,9.418289
2023-02-25T05:21:03.712Z,9.418303
2023-02-25T05:22:03.734Z,9.418392
2023-02-25T05:23:03.694Z,9.418435
2023-02-25T05:24:03.679Z,9.418360
2023-02-25T05:25:03.673Z,9.418319
2023-02-25T05:26:03.676Z,9.418234
2023-02-25T05:27:03.684Z,9.418408
2023-02-25T05:28:04.949Z,9.418543
2023-02-25T05:29:03.657Z,9.418516
2023-02-25T05:30:03.764Z,9.418438
2023-02-25T05:31:03.745Z,9.418279
2023-02-25T05:32:03.906Z,9.418296
2023-02-25T05:33:03.679Z,9.418442
2023-02-25T05:34:03.644Z,9.418275
2023-02-25T05:35:03.631Z,9.418406
2023-02-25T05:36:03.605Z,9.418446
2023-02-25T05:37:03.632Z,9.418544
2023-02-25T05:38:03.580Z,9.418373
2023-02-25T05:39:03.591Z,9.418448
2023-02-25T05:40:03.577Z,9.418402
2023-02-25T05:41:03.565Z,9.418409
2023-02-25T05:42:03.567Z,9.418428
2023-02-25T05:43:03.579Z,9.418466
2023-02-25T05:44:03.552Z,9.418538
2023-02-25T05:45:03.543Z,9.418539
2023-02-25T05:46:03.535Z,9.418439
2023-02-25T05:47:03.668Z,9.418539
2023-02-25T05:48:03.563Z,9.418545
2023-02-25T05:49:03.552Z,9.418590
2023-02-25T05:50:03.539Z,9.418606
2023-02-25T05:51:03.513Z,9.418632
2023-02-25T05:52:03.507Z,9.418485
2023-02-25T05:53:03.499Z,9.418433
2023-02-25T05:54:03.490Z,9.418474
2023-02-25T05:55:03.503Z,9.418597
2023-02-25T05:56:03.491Z,9.418572
2023-02-25T05:57:03.453Z,9.418555
2023-02-25T05:58:03.495Z,9.418614
2023-02-25T05:59:03.461Z,9.418522
2023-02-25T06:00:03.457Z,9.418542
2023-02-25T06:01:03.439Z,9.418423
2023-02-25T06:02:03.513Z,9.418530
2023-02-25T06:03:03.480Z,9.418467
2023-02-25T06:04:03.426Z,9.418345
2023-02-25T06:05:03.418Z,9.418327
2023-02-25T06:06:03.392Z,9.418325
2023-02-25T06:07:03.407Z,9.418391
2023-02-25T06:08:03.381Z,9.418373
2023-02-25T06:09:03.379Z,9.418371
2023-02-25T06:10:03.395Z,9.418317
2023-02-25T06:11:03.379Z,9.418367
2023-02-25T06:12:03.351Z,9.418282
2023-02-25T06:13:03.364Z,9.418289
2023-02-25T06:14:03.348Z,9.418365
2023-02-25T06:15:03.348Z,9.418400
2023-02-25T06:16:03.359Z,9.418369
2023-02-25T06:17:03.342Z,9.418302
2023-02-25T06:18:03.318Z,9.418387
2023-02-25T06:19:03.344Z,9.418350
2023-02-25T06:20:03.302Z,9.418370
2023-02-25T06:21:03.297Z,9.418373
2023-02-25T06:22:03.282Z,9.418373
2023-02-25T06:23:03.276Z,9.418373
2023-02-25T06:24:05.548Z,9.418373
2023-02-25T06:25:03.278Z,9.418373
2023-02-25T06:26:03.262Z,9.418373
2023-02-25T06:27:03.256Z,9.418462
2023-02-25T06:28:03.255Z,9.418374
2023-02-25T06:29:03.240Z,9.418371
2023-02-25T06:30:03.266Z,9.418371
2023-02-25T06:31:03.311Z,9.418371
2023-02-25T06:32:03.309Z,9.418371
2023-02-25T06:33:03.226Z,9.418431
2023-02-25T06:34:03.232Z,9.418431
2023-02-25T06:35:03.216Z,9.418457
2023-02-25T06:36:03.203Z,9.418345
2023-02-25T06:37:03.235Z,9.418427
2023-02-25T06:38:03.189Z,9.418342
2023-02-25T06:39:03.196Z,9.418316
2023-02-25T06:40:03.168Z,9.418274
2023-02-25T06:41:03.173Z,9.418267
2023-02-25T06:42:03.155Z,9.418320
2023-02-25T06:43:03.169Z,9.418210
2023-02-25T06:44:03.183Z,9.418099
2023-02-25T06:45:03.150Z,9.418106
2023-02-25T06:46:03.206Z,9.418079
2023-02-25T06:47:03.127Z,9.417999
2023-02-25T06:48:03.125Z,9.418108
2023-02-25T06:49:03.141Z,9.418192
2023-02-25T06:50:03.161Z,9.418123
2023-02-25T06:51:03.137Z,9.418407
2023-02-25T06:52:03.111Z,9.418470
2023-02-25T06:53:03.088Z,9.418483
2023-02-25T06:54:03.104Z,9.418446
2023-02-25T06:55:03.115Z,9.418461
2023-02-25T06:56:03.076Z,9.418357
2023-02-25T06:57:03.064Z,9.418236
2023-02-25T06:58:03.061Z,9.418132
2023-02-25T06:59:03.047Z,9.418222
2023-02-25T07:00:03.041Z,9.418247
2023-02-25T07:01:03.050Z,9.418477
2023-02-25T07:02:03.036Z,9.418444
2023-02-25T07:03:03.100Z,9.418438
2023-02-25T07:04:03.041Z,9.418450
2023-02-25T07:05:03.020Z,9.418330
2023-02-25T07:06:03.022Z,9.418284
2023-02-25T07:07:03.019Z,9.418333
2023-02-25T07:08:02.986Z,9.418214
2023-02-25T07:09:02.982Z,9.418314
2023-02-25T07:10:02.993Z,9.418282
2023-02-25T07:11:03.965Z,9.418279
2023-02-25T07:12:02.961Z,9.418329
2023-02-25T07:13:02.951Z,9.418317
2023-02-25T07:14:02.945Z,9.418334
2023-02-25T07:15:02.955Z,9.418327
2023-02-25T07:16:03.015Z,9.418283
2023-02-25T07:17:02.930Z,9.418344
2023-02-25T07:18:02.953Z,9.418309
2023-02-25T07:19:02.927Z,9.418327
2023-02-25T07:20:02.954Z,9.418385
2023-02-25T07:21:02.896Z,9.418285
2023-02-25T07:22:02.902Z,9.418273
2023-02-25T07:23:02.915Z,9.418329
2023-02-25T07:24:02.878Z,9.418340
2023-02-25T07:25:03.039Z,9.418320
2023-02-25T07:26:02.888Z,9.418292
2023-02-25T07:27:02.869Z,9.418365
2023-02-25T07:28:02.859Z,9.418313
2023-02-25T07:29:02.848Z,9.418325
2023-02-25T07:30:02.836Z,9.418370
2023-02-25T07:31:02.975Z,9.418321
2023-02-25T07:32:03.148Z,9.418293
2023-02-25T07:33:03.076Z,9.418373
2023-02-25T07:34:03.815Z,9.418355
2023-02-25T07:35:02.817Z,9.418348
2023-02-25T07:36:02.804Z,9.418393
2023-02-25T07:37:02.797Z,9.418279
2023-02-25T07:38:02.787Z,9.418334
2023-02-25T07:39:02.797Z,9.418344
2023-02-25T07:40:02.775Z,9.418349
2023-02-25T07:41:02.767Z,9.418380
2023-02-25T07:42:02.767Z,9.418417
2023-02-25T07:43:02.770Z,9.418406
2023-02-25T07:44:02.750Z,9.418367
2023-02-25T07:45:02.822Z,9.418380
2023-02-25T07:46:02.789Z,9.418349
2023-02-25T07:47:02.744Z,9.418293
2023-02-25T07:48:02.717Z,9.418344
2023-02-25T07:49:02.735Z,9.418520
2023-02-25T07:50:02.717Z,9.418353
2023-02-25T07:51:02.705Z,9.418334
2023-02-25T07:52:02.729Z,9.418353
2023-02-25T07:53:02.698Z,9.418322
2023-02-25T07:54:02.703Z,9.418341
2023-02-25T07:55:02.684Z,9.418375
2023-02-25T07:56:02.670Z,9.418420
2023-02-25T07:57:02.690Z,9.418386
2023-02-25T07:58:02.658Z,9.418375
2023-02-25T07:59:02.664Z,9.418426
2023-02-25T08:00:02.650Z,9.418373
2023-02-25T08:01:02.634Z,9.418380
2023-02-25T08:02:02.644Z,9.418347
2023-02-25T08:03:02.629Z,9.418293
2023-02-25T08:04:02.642Z,9.418395
2023-02-25T08:05:02.637Z,9.418356
2023-02-25T08:06:02.608Z,9.418354
2023-02-25T08:07:02.597Z,9.418355
2023-02-25T08:08:02.628Z,9.418379
2023-02-25T08:09:02.618Z,9.418336
2023-02-25T08:10:02.602Z,9.418323
2023-02-25T08:11:02.580Z,9.418320
2023-02-25T08:12:02.568Z,9.418372
2023-02-25T08:13:02.571Z,9.418430
2023-02-25T08:14:02.552Z,9.418335
2023-02-25T08:15:02.548Z,9.418338
2023-02-25T08:16:02.685Z,9.418276
2023-02-25T08:17:02.531Z,9.418344
2023-02-25T08:18:03.555Z,9.418321
2023-02-25T08:19:02.562Z,9.418364
2023-02-25T08:20:02.517Z,9.418315
2023-02-25T08:21:03.111Z,9.418251
2023-02-25T08:22:03.500Z,9.418327
2023-02-25T08:23:02.513Z,9.418388
2023-02-25T08:24:02.489Z,9.418390
2023-02-25T08:25:02.522Z,9.418365
2023-02-25T08:26:02.514Z,9.418344
2023-02-25T08:27:02.472Z,9.418338
2023-02-25T08:28:02.472Z,9.418344
2023-02-25T08:29:02.488Z,9.418347
2023-02-25T08:30:02.464Z,9.418357
2023-02-25T08:31:02.598Z,9.418315
2023-02-25T08:32:02.544Z,9.418319
2023-02-25T08:33:02.495Z,9.418338
2023-02-25T08:34:02.425Z,9.418363
2023-02-25T08:35:02.460Z,9.418357
2023-02-25T08:36:02.419Z,9.418362
2023-02-25T08:37:02.412Z,9.418351
2023-02-25T08:38:02.404Z,9.418452
2023-02-25T08:39:02.391Z,9.418390
2023-02-25T08:40:02.399Z,9.418366
2023-02-25T08:41:02.400Z,9.418342
2023-02-25T08:42:02.380Z,9.418385
2023-02-25T08:43:02.385Z,9.418330
2023-02-25T08:44:02.364Z,9.418324
2023-02-25T08:45:02.380Z,9.418280
2023-02-25T08:46:02.394Z,9.418311
2023-02-25T08:47:02.406Z,9.418251
2023-02-25T08:48:02.354Z,9.418304
2023-02-25T08:49:02.368Z,9.418305
2023-02-25T08:50:02.332Z,9.418311
2023-02-25T08:51:02.309Z,9.418296
2023-02-25T08:52:02.328Z,9.418234
2023-02-25T08:53:02.289Z,9.418380
2023-02-25T08:54:02.282Z,9.418226
2023-02-25T08:55:03.288Z,9.418242
2023-02-25T08:56:02.276Z,9.418265
2023-02-25T08:57:02.275Z,9.418274
2023-02-25T08:58:02.267Z,9.418311
2023-02-25T08:59:02.272Z,9.418209
2023-02-25T09:00:04.262Z,9.418229
2023-02-25T09:01:02.297Z,9.418218
2023-02-25T09:02:02.246Z,9.418312
2023-02-25T09:03:02.258Z,9.418296
2023-02-25T09:04:02.224Z,9.418268
2023-02-25T09:05:02.223Z,9.418246
2023-02-25T09:06:02.224Z,9.418292
2023-02-25T09:07:02.235Z,9.418257
2023-02-25T09:08:02.214Z,9.418295
2023-02-25T09:09:02.200Z,9.418201
2023-02-25T09:10:02.190Z,9.418216
2023-02-25T09:11:02.187Z,9.418251
2023-02-25T09:12:02.170Z,9.418239
2023-02-25T09:13:02.163Z,9.418261
2023-02-25T09:14:02.176Z,9.418349
2023-02-25T09:15:02.176Z,9.418329
2023-02-25T09:16:02.148Z,9.418326
2023-02-25T09:17:03.143Z,9.418307
2023-02-25T09:18:02.134Z,9.418258
2023-02-25T09:19:02.130Z,9.418287
2023-02-25T09:20:02.119Z,9.418276
2023-02-25T09:21:02.098Z,9.418255
2023-02-25T09:22:02.096Z,9.418371
2023-02-25T09:23:02.095Z,9.418446
2023-02-25T09:24:02.087Z,9.418372
2023-02-25T09:25:02.084Z,9.418247
2023-02-25T09:26:02.082Z,9.418338
2023-02-25T09:27:02.066Z,9.418298
2023-02-25T09:28:02.069Z,9.418225
2023-02-25T09:29:02.046Z,9.418294
2023-02-25T09:30:02.043Z,9.418180
2023-02-25T09:31:02.116Z,9.418221
2023-02-25T09:32:02.107Z,9.418373
2023-02-25T09:33:02.199Z,9.418326
2023-02-25T09:34:02.000Z,9.418282
2023-02-25T09:35:01.994Z,9.418289
2023-02-25T09:36:02.004Z,9.418266
2023-02-25T09:37:01.992Z,9.418339
2023-02-25T09:38:01.999Z,9.418242
2023-02-25T09:39:01.965Z,9.418258
2023-02-25T09:40:01.963Z,9.418331
2023-02-25T09:41:01.958Z,9.418290
2023-02-25T09:42:01.971Z,9.418273
2023-02-25T09:43:01.940Z,9.418239
2023-02-25T09:44:01.941Z,9.418244
2023-02-25T09:45:01.919Z,9.418305
2023-02-25T09:46:02.989Z,9.418311
2023-02-25T09:47:01.905Z,9.418289
2023-02-25T09:48:01.944Z,9.418303
2023-02-25T09:49:01.901Z,9.418313
2023-02-25T09:50:01.912Z,9.418376
2023-02-25T09:51:01.879Z,9.418261
2023-02-25T09:52:01.887Z,9.418235
2023-02-25T09:53:01.873Z,9.418213
2023-02-25T09:54:01.896Z,9.418261
2023-02-25T09:55:01.844Z,9.418270
2023-02-25T09:56:01.850Z,9.418285
2023-02-25T09:57:01.848Z,9.418283
2023-02-25T09:58:01.836Z,9.418357
2023-02-25T09:59:01.848Z,9.418251
2023-02-25T10:00:01.826Z,9.418161
2023-02-25T10:01:01.844Z,9.418168
2023-02-25T10:02:01.830Z,9.418186
2023-02-25T10:03:01.969Z,9.418223
2023-02-25T10:04:01.816Z,9.418229
2023-02-25T10:05:01.800Z,9.418280
2023-02-25T10:06:01.782Z,9.418164
2023-02-25T10:07:01.770Z,9.418230
2023-02-25T10:08:01.776Z,9.418320
2023-02-25T10:09:01.758Z,9.418356
2023-02-25T10:10:01.778Z,9.418408
2023-02-25T10:11:01.765Z,9.418400
2023-02-25T10:12:01.736Z,9.418407
2023-02-25T10:13:01.731Z,9.418339
2023-02-25T10:14:01.721Z,9.418311
2023-02-25T10:15:01.716Z,9.418336
2023-02-25T10:16:01.737Z,9.418354
2023-02-25T10:17:01.806Z,9.418358
2023-02-25T10:18:01.697Z,9.418361
2023-02-25T10:19:01.762Z,9.418355
2023-02-25T10:20:01.686Z,9.418357
2023-02-25T10:21:01.752Z,9.418263
2023-02-25T10:22:01.697Z,9.418246
2023-02-25T10:23:01.661Z,9.418273
2023-02-25T10:24:01.667Z,9.418219
2023-02-25T10:25:01.650Z,9.418221
2023-02-25T10:26:01.664Z,9.418241
2023-02-25T10:27:01.632Z,9.418314
2023-02-25T10:28:01.641Z,9.418338
2023-02-25T10:29:01.656Z,9.418292
2023-02-25T10:30:01.639Z,9.418331
2023-02-25T10:31:01.728Z,9.418326
2023-02-25T10:32:01.858Z,9.418309
2023-02-25T10:33:01.596Z,9.418299
2023-02-25T10:34:03.891Z,9.418308
2023-02-25T10:35:02.582Z,9.418329
2023-02-25T10:36:01.566Z,9.418354
2023-02-25T10:37:02.571Z,9.418356
2023-02-25T10:38:01.561Z,9.418401
2023-02-25T10:39:01.548Z,9.418392
2023-02-25T10:40:04.352Z,9.418376
2023-02-25T10:41:01.538Z,9.418354
2023-02-25T10:42:01.547Z,9.418309
2023-02-25T10:43:01.532Z,9.418319
2023-02-25T10:44:01.522Z,9.418282
2023-02-25T10:45:01.546Z,9.418274
2023-02-25T10:46:01.532Z,9.418228
2023-02-25T10:47:01.506Z,9.418290
2023-02-25T10:48:01.488Z,9.418299
2023-02-25T10:49:01.493Z,9.418302
2023-02-25T10:50:01.482Z,9.418296
2023-02-25T10:51:01.492Z,9.418284
2023-02-25T10:52:01.478Z,9.418233
2023-02-25T10:53:01.485Z,9.418198
2023-02-25T10:54:01.474Z,9.418286
2023-02-25T10:55:01.461Z,9.418310
2023-02-25T10:56:01.492Z,9.418268
2023-02-25T10:57:01.432Z,9.418240
2023-02-25T10:58:01.428Z,9.418257
2023-02-25T10:59:01.433Z,9.418288
2023-02-25T11:00:01.444Z,9.418262
2023-02-25T11:01:01.440Z,9.418297
2023-02-25T11:02:01.522Z,9.418298
2023-02-25T11:03:01.698Z,9.418576
2023-02-25T11:04:01.395Z,9.418468
2023-02-25T11:05:01.419Z,9.418471
2023-02-25T11:06:01.384Z,9.418431
2023-02-25T11:07:01.388Z,9.418374
2023-02-25T11:08:01.373Z,9.418338
2023-02-25T11:09:01.368Z,9.418344
2023-02-25T11:10:01.357Z,9.418432
2023-02-25T11:11:01.349Z,9.418472
2023-02-25T11:12:01.377Z,9.418309
2023-02-25T11:13:01.433Z,9.418221
2023-02-25T11:14:01.345Z,9.418303
2023-02-25T11:15:01.324Z,9.418305
2023-02-25T11:16:01.361Z,9.418391
2023-02-25T11:17:01.329Z,9.418239
2023-02-25T11:18:01.297Z,9.418296
2023-02-25T11:19:01.297Z,9.418264
2023-02-25T11:20:01.299Z,9.418290
2023-02-25T11:21:01.292Z,9.418331
2023-02-25T11:22:01.293Z,9.418349
2023-02-25T11:23:01.299Z,9.418311
2023-02-25T11:24:01.278Z,9.418280
2023-02-25T11:25:01.255Z,9.418312
2023-02-25T11:26:01.249Z,9.418306
2023-02-25T11:27:01.240Z,9.418356
2023-02-25T11:28:01.258Z,9.418342
2023-02-25T11:29:01.258Z,9.418315
2023-02-25T11:30:01.224Z,9.418332
2023-02-25T11:31:01.306Z,9.418447
2023-02-25T11:32:01.397Z,9.418457
2023-02-25T11:33:01.230Z,9.418406
2023-02-25T11:34:01.271Z,9.418269
2023-02-25T11:35:01.186Z,9.418311
2023-02-25T11:36:01.183Z,9.418343
2023-02-25T11:37:01.172Z,9.418285
2023-02-25T11:38:01.177Z,9.418324
2023-02-25T11:39:01.176Z,9.418304
2023-02-25T11:40:01.148Z,9.418249
2023-02-25T11:41:01.150Z,9.418279
2023-02-25T11:42:01.124Z,9.418248
2023-02-25T11:43:01.135Z,9.418321
2023-02-25T11:44:03.028Z,9.418301